Time;durP1;ratioP1;P1;durP2;ratioP2;P2;SDS_P1;SDS_P2;PMS_P1;PMS_P2;Temp;Humidity;BMP_temperature;BMP_pressure;BME280_temperature;BME280_humidity;BME280_pressure;Samples;Min_cycle;Max_cycle;Signal;HPM_P1;HPM_P2
2021/09/29 06:05:50;;;;;;;12.65;3.13;;;17.20;72.00;;;;;;4733316;30;20083;-72
2021/09/29 06:08:17;;;;;;;12.57;2.92;;;17.40;71.50;;;;;;4740790;30;20133;-69
2021/09/29 06:10:42;;;;;;;33.10;4.55;;;17.50;71.50;;;;;;4741376;30;20060;-71
2021/09/29 06:13:08;;;;;;;16.80;3.53;;;17.60;71.30;;;;;;4740712;30;20055;-70
2021/09/29 06:15:34;;;;;;;18.90;3.85;;;17.70;71.10;;;;;;4739844;30;20136;-68
2021/09/29 06:18:04;;;;;;;12.23;3.30;;;17.70;70.80;;;;;;4740132;30;20067;-69
2021/09/29 06:20:32;;;;;;;13.73;3.33;;;17.70;70.60;;;;;;4739885;30;20488;-69
2021/09/29 06:23:00;;;;;;;15.32;3.80;;;17.80;70.50;;;;;;4740017;30;20056;-69
2021/09/29 06:25:26;;;;;;;10.05;2.58;;;17.80;70.40;;;;;;4739828;30;20457;-69
2021/09/29 06:27:52;;;;;;;8.15;2.97;;;17.80;70.40;;;;;;4739971;30;20059;-70
2021/09/29 06:30:18;;;;;;;12.82;3.10;;;17.80;70.20;;;;;;4739664;30;20404;-70
2021/09/29 06:32:44;;;;;;;13.85;2.90;;;17.80;70.20;;;;;;4739388;30;20479;-70
2021/09/29 06:35:11;;;;;;;11.63;2.55;;;17.80;70.20;;;;;;4739548;30;20060;-69
2021/09/29 06:37:42;;;;;;;10.10;3.42;;;17.80;70.30;;;;;;4739842;30;20049;-70
2021/09/29 06:40:09;;;;;;;14.18;3.65;;;17.60;69.80;;;;;;4749182;30;20052;-69
2021/09/29 06:42:35;;;;;;;11.73;3.40;;;17.40;70.10;;;;;;4755389;30;20067;-70
2021/09/29 06:45:00;;;;;;;10.43;3.05;;;17.30;71.10;;;;;;4743459;30;20044;-70
2021/09/29 06:47:26;;;;;;;7.03;3.20;;;17.10;70.90;;;;;;4739161;30;20060;-70
2021/09/29 06:49:52;;;;;;;7.25;3.33;;;17.00;71.40;;;;;;4746422;30;20067;-70
2021/09/29 06:52:22;;;;;;;7.13;3.03;;;16.90;71.80;;;;;;4756687;30;20048;-72
2021/09/29 06:54:47;;;;;;;8.63;3.03;;;16.90;71.80;;;;;;4756684;30;20059;-70
2021/09/29 06:57:13;;;;;;;11.77;3.05;;;16.80;72.10;;;;;;4756970;30;20052;-70
2021/09/29 06:59:40;;;;;;;7.40;3.22;;;16.80;72.00;;;;;;4756414;30;20131;-69
2021/09/29 07:02:06;;;;;;;8.35;2.85;;;16.90;72.40;;;;;;4748715;30;20056;-70
2021/09/29 07:04:31;;;;;;;13.40;2.90;;;17.00;72.40;;;;;;4748266;30;20079;-70
2021/09/29 07:06:58;;;;;;;8.48;2.67;;;17.00;72.50;;;;;;4756498;30;20477;-70
2021/09/29 07:09:23;;;;;;;9.32;3.30;;;17.10;72.40;;;;;;4756488;30;20135;-69
2021/09/29 07:11:49;;;;;;;7.80;2.90;;;17.10;71.90;;;;;;4755775;30;20206;-70
2021/09/29 07:14:15;;;;;;;6.60;3.10;;;17.30;71.60;;;;;;4756350;30;20520;-69
2021/09/29 07:16:41;;;;;;;7.13;3.15;;;17.30;71.10;;;;;;4756585;30;20369;-70
2021/09/29 07:19:07;;;;;;;5.18;3.42;;;17.40;70.90;;;;;;4756335;30;20064;-70
2021/09/29 07:21:32;;;;;;;7.07;3.10;;;17.30;70.80;;;;;;4756242;30;20063;-69
2021/09/29 07:23:59;;;;;;;6.40;2.83;;;17.30;71.00;;;;;;4756287;30;20575;-69
2021/09/29 07:26:25;;;;;;;7.10;2.83;;;17.30;71.20;;;;;;4756052;30;20528;-69
2021/09/29 07:28:51;;;;;;;5.85;2.95;;;17.20;71.30;;;;;;4756167;30;20480;-69
2021/09/29 07:31:18;;;;;;;6.40;2.97;;;17.20;71.50;;;;;;4755991;30;20066;-70
2021/09/29 07:33:44;;;;;;;5.90;2.80;;;17.10;71.60;;;;;;4756158;30;20357;-69
2021/09/29 07:36:11;;;;;;;6.60;3.13;;;17.10;71.80;;;;;;4756086;30;20063;-70
2021/09/29 07:38:37;;;;;;;6.18;2.85;;;17.00;72.00;;;;;;4756055;30;20419;-69
2021/09/29 07:41:03;;;;;;;4.70;2.45;;;17.00;72.00;;;;;;4755831;30;20060;-70
2021/09/29 07:43:29;;;;;;;5.13;2.53;;;17.00;72.10;;;;;;4755427;30;20125;-69
2021/09/29 07:45:55;;;;;;;5.40;2.78;;;17.00;72.20;;;;;;4755770;30;20087;-70
2021/09/29 07:48:21;;;;;;;6.28;2.90;;;17.00;72.30;;;;;;4755689;30;20083;-69
2021/09/29 07:50:46;;;;;;;5.47;2.58;;;16.90;72.40;;;;;;4754472;30;20060;-69
2021/09/29 07:53:14;;;;;;;4.95;2.63;;;16.90;72.60;;;;;;4755878;30;20075;-70
2021/09/29 07:55:40;;;;;;;6.70;2.58;;;16.90;72.70;;;;;;4755738;30;20067;-69
2021/09/29 07:58:06;;;;;;;4.78;2.45;;;16.90;72.90;;;;;;4755740;30;20089;-69
2021/09/29 08:00:32;;;;;;;4.03;2.67;;;16.90;72.90;;;;;;4755568;30;20055;-69
2021/09/29 08:02:58;;;;;;;5.28;2.42;;;16.90;73.60;;;;;;4755235;30;20056;-69
2021/09/29 08:05:24;;;;;;;5.25;2.47;;;16.90;73.00;;;;;;4755233;30;20068;-69
2021/09/29 08:07:51;;;;;;;6.30;2.55;;;16.90;73.00;;;;;;4755488;30;20064;-71
2021/09/29 08:10:19;;;;;;;6.47;2.60;;;16.90;73.10;;;;;;4755325;30;20064;-70
2021/09/29 08:12:45;;;;;;;4.97;2.53;;;16.90;73.10;;;;;;4754679;30;20064;-69
2021/09/29 08:15:15;;;;;;;5.07;2.10;;;16.80;73.10;;;;;;4755229;30;20073;-69
2021/09/29 08:17:43;;;;;;;7.32;2.78;;;16.90;73.20;;;;;;4754800;30;20052;-70
2021/09/29 08:20:11;;;;;;;7.93;3.28;;;16.90;73.20;;;;;;4755466;30;20358;-70
2021/09/29 08:22:39;;;;;;;6.47;3.00;;;17.00;73.10;;;;;;4755017;30;20056;-70
2021/09/29 08:32:38;;;;;;;6.13;2.63;;;17.00;73.00;;;;;;4755148;30;20048;-70
2021/09/29 08:37:46;;;;;;;7.50;3.67;;;17.00;73.20;;;;;;4755001;30;20060;-70
2021/09/29 08:45:25;;;;;;;7.30;2.58;;;17.20;72.70;;;;;;5133582;27;20404;-73
2021/09/29 08:48:03;;;;;;;4.60;2.58;;;17.20;72.60;;;;;;5113070;28;20058;-74
2021/09/29 09:16:54;;;;;;;9.30;1.95;;;18.60;70.80;;;;;;5112265;28;20081;-74
2021/09/29 09:19:27;;;;;;;5.80;1.73;;;18.70;70.80;;;;;;5112292;28;20058;-74
2021/09/29 09:22:05;;;;;;;5.50;1.67;;;18.70;70.90;;;;;;5094435;28;20044;-74
2021/09/29 09:24:33;;;;;;;4.82;1.13;;;18.60;70.90;;;;;;5091782;28;20063;-74
2021/09/29 09:27:08;;;;;;;8.18;1.55;;;18.60;70.90;;;;;;5091811;28;20040;-73
2021/09/29 09:29:45;;;;;;;8.70;1.40;;;18.60;71.00;;;;;;5091558;28;20109;-75
2021/09/29 09:32:13;;;;;;;5.40;1.15;;;18.60;70.90;;;;;;5091406;28;20048;-74
2021/09/29 09:34:39;;;;;;;7.18;1.20;;;18.60;71.00;;;;;;5091408;28;20040;-74
2021/09/29 09:37:14;;;;;;;7.13;1.75;;;18.60;71.10;;;;;;5091753;28;20044;-74
2021/09/29 09:39:40;;;;;;;3.88;1.20;;;18.60;71.20;;;;;;5109565;28;20048;-74
2021/09/29 09:42:08;;;;;;;3.35;1.02;;;18.60;71.10;;;;;;5111769;28;20059;-74
2021/09/29 09:44:36;;;;;;;3.95;1.05;;;18.60;71.10;;;;;;5083658;28;20520;-74
2021/09/29 09:47:13;;;;;;;4.32;1.00;;;18.70;71.10;;;;;;5091355;28;20044;-74
2021/09/29 09:49:48;;;;;;;4.30;1.10;;;18.60;71.10;;;;;;5091516;28;20041;-74
2021/09/29 09:52:33;;;;;;;7.22;1.38;;;18.60;71.10;;;;;;5091455;28;20040;-71
2021/09/29 09:55:14;;;;;;;6.25;1.05;;;18.60;71.10;;;;;;5087265;28;20347;-70
2021/09/29 09:57:41;;;;;;;4.68;1.38;;;18.70;71.10;;;;;;5077722;28;20052;-71
2021/09/29 10:00:15;;;;;;;4.25;1.42;;;18.70;71.10;;;;;;5078060;28;20053;-71
2021/09/29 10:02:44;;;;;;;;;;;18.70;71.00;;;;;;5077994;28;20461;-71
2021/09/29 10:05:12;;;;;;;4.60;1.10;;;18.70;71.00;;;;;;5077413;28;19955;-70
2021/09/29 10:07:39;;;;;;;8.20;0.98;;;18.80;71.60;;;;;;5077513;28;20040;-70
2021/09/29 10:27:20;;;;;;;7.38;1.08;;;19.20;70.10;;;;;;5087865;28;20371;-70
2021/09/29 10:29:59;;;;;;;7.10;1.20;;;19.20;70.00;;;;;;5082446;28;20049;-70
2021/09/29 10:32:27;;;;;;;8.18;1.30;;;19.20;70.10;;;;;;5078044;28;20404;-73
2021/09/29 10:40:35;;;;;;;3.50;0.80;;;19.10;70.10;;;;;;5068821;28;20060;-70
2021/09/29 10:43:03;;;;;;;7.00;1.00;;;19.10;70.20;;;;;;5087653;28;20097;-70
2021/09/29 11:29:23;;;;;;;4.00;0.70;;;18.70;71.30;;;;;;5075587;28;20044;-70
2021/09/29 11:31:57;;;;;;;3.47;0.50;;;18.60;71.20;;;;;;5075824;28;20045;-71
2021/09/29 11:34:29;;;;;;;4.57;0.63;;;18.60;71.20;;;;;;5075884;28;20052;-70
2021/09/29 12:12:22;;;;;;;11.85;1.00;;;18.50;70.50;;;;;;5095933;28;20048;-71
2021/09/29 12:14:51;;;;;;;5.13;1.15;;;18.50;70.50;;;;;;5095268;28;20082;-71
2021/09/29 12:17:25;;;;;;;4.20;0.68;;;18.50;70.50;;;;;;5095312;28;20052;-71
2021/09/29 12:19:55;;;;;;;3.55;0.60;;;18.50;70.50;;;;;;5094855;28;20122;-70
2021/09/29 12:22:23;;;;;;;5.13;0.60;;;18.50;70.60;;;;;;5094882;28;20036;-70
2021/09/29 12:24:57;;;;;;;3.72;0.77;;;18.50;70.70;;;;;;5095648;28;20349;-70
2021/09/29 12:30:22;;;;;;;3.30;0.90;;;18.50;70.70;;;;;;5095096;28;20051;-69
2021/09/29 12:35:39;;;;;;;4.15;0.65;;;18.40;70.70;;;;;;5095553;28;20466;-72
2021/09/29 12:38:05;;;;;;;4.70;0.63;;;18.40;70.70;;;;;;5095358;28;20126;-71
2021/09/29 12:40:35;;;;;;;4.35;0.70;;;18.40;70.80;;;;;;5095323;28;20127;-70
2021/09/29 12:43:18;;;;;;;6.10;0.85;;;18.50;71.00;;;;;;5094889;28;20048;-71
2021/09/29 12:45:48;;;;;;;6.18;0.82;;;18.50;71.20;;;;;;5095430;28;20052;-71
2021/09/29 12:48:16;;;;;;;5.60;0.80;;;18.50;71.20;;;;;;5094987;28;20051;-70
2021/09/29 12:50:53;;;;;;;3.72;0.50;;;18.60;71.40;;;;;;5077329;28;20139;-70
2021/09/29 12:56:01;;;;;;;4.20;0.80;;;18.60;71.50;;;;;;5091965;28;20412;-70
2021/09/29 12:58:27;;;;;;;8.00;1.05;;;18.70;71.50;;;;;;5094521;28;20153;-70
2021/09/29 13:00:54;;;;;;;6.80;0.90;;;18.70;71.40;;;;;;5095070;28;20131;-72
2021/09/29 13:03:20;;;;;;;6.93;0.60;;;18.70;71.40;;;;;;5094961;28;20044;-71
2021/09/29 13:05:47;;;;;;;2.65;0.77;;;18.80;72.00;;;;;;5095055;28;20121;-73
2021/09/29 13:08:12;;;;;;;7.13;0.70;;;18.70;71.30;;;;;;5094740;28;20051;-73
2021/09/29 13:10:38;;;;;;;11.52;1.00;;;18.70;71.30;;;;;;5094692;28;20048;-73
2021/09/29 13:13:04;;;;;;;4.75;0.90;;;18.80;71.40;;;;;;5095110;28;20040;-74
2021/09/29 13:15:31;;;;;;;5.43;0.70;;;18.70;71.20;;;;;;5095203;28;20036;-73
2021/09/29 13:17:58;;;;;;;7.35;1.13;;;18.70;71.30;;;;;;5094731;28;20117;-73
2021/09/29 13:20:30;;;;;;;4.55;0.77;;;18.70;71.20;;;;;;5094526;28;20539;-74
2021/09/29 13:23:03;;;;;;;5.32;0.50;;;18.70;71.30;;;;;;5094861;28;20248;-73
2021/09/29 13:39:18;;;;;;;3.78;0.40;;;18.60;71.40;;;;;;5098389;28;20434;-73
2021/09/29 13:41:45;;;;;;;2.27;0.40;;;18.60;71.10;;;;;;5098252;28;20047;-73
2021/09/29 13:44:12;;;;;;;4.97;0.60;;;18.60;71.40;;;;;;5097864;28;20432;-74
2021/09/29 13:46:39;;;;;;;2.83;0.50;;;18.60;71.40;;;;;;5098138;28;20047;-73
2021/09/29 13:49:07;;;;;;;6.47;1.05;;;18.60;71.50;;;;;;5098554;28;20040;-73
2021/09/29 13:51:34;;;;;;;4.35;0.47;;;18.60;71.50;;;;;;5098636;28;20051;-75
2021/09/29 13:54:07;;;;;;;2.38;0.57;;;18.60;71.50;;;;;;5097875;28;20523;-73
2021/09/29 13:56:44;;;;;;;6.68;0.68;;;18.60;71.50;;;;;;5089276;28;20045;-73
2021/09/29 14:02:10;;;;;;;2.67;0.75;;;18.70;71.60;;;;;;5083122;28;20048;-71
2021/09/29 14:32:06;;;;;;;7.25;1.08;;;18.90;72.60;;;;;;5014992;28;20420;-73
2021/09/29 14:34:32;;;;;;;12.25;1.20;;;19.00;72.90;;;;;;5065791;28;20052;-70
2021/09/29 14:36:58;;;;;;;10.15;1.25;;;19.10;72.70;;;;;;5077191;28;20097;-71
2021/09/29 14:39:25;;;;;;;11.07;1.38;;;19.20;72.00;;;;;;5076940;28;20055;-69
2021/09/29 14:41:52;;;;;;;6.55;1.35;;;19.30;71.70;;;;;;5088013;28;20043;-71
2021/09/29 14:44:18;;;;;;;5.47;0.90;;;19.40;71.50;;;;;;5081760;28;20114;-72
2021/09/29 14:46:44;;;;;;;7.30;1.00;;;19.50;71.50;;;;;;5076906;28;20053;-70
2021/09/29 14:49:09;;;;;;;11.10;1.05;;;19.60;71.10;;;;;;5077004;28;20048;-70
2021/09/29 14:51:35;;;;;;;9.75;1.52;;;19.60;70.80;;;;;;5077195;28;20466;-72
2021/09/29 14:54:02;;;;;;;10.85;1.20;;;19.60;70.70;;;;;;5076837;28;20049;-71
2021/09/29 14:56:28;;;;;;;7.28;1.10;;;19.50;70.20;;;;;;5076709;28;20048;-74
2021/09/29 14:58:54;;;;;;;8.38;1.30;;;19.50;70.50;;;;;;5076855;28;20458;-74
2021/09/29 15:01:23;;;;;;;8.38;1.15;;;19.60;70.50;;;;;;5076402;28;20042;-74
2021/09/29 15:03:49;;;;;;;9.85;1.23;;;19.60;70.60;;;;;;5078538;28;20048;-74
2021/09/29 15:06:15;;;;;;;8.52;1.20;;;19.70;71.10;;;;;;5096817;28;20106;-74
2021/09/29 15:08:42;;;;;;;6.65;1.38;;;19.80;71.10;;;;;;5089219;28;20071;-74
2021/09/29 15:11:09;;;;;;;7.50;1.20;;;19.80;71.30;;;;;;5076310;28;20049;-72
2021/09/29 15:13:43;;;;;;;10.38;1.23;;;19.80;71.20;;;;;;5076670;28;20040;-71
2021/09/29 15:16:21;;;;;;;12.02;1.45;;;19.80;71.20;;;;;;5076539;28;20048;-71
2021/09/29 15:48:09;;;;;;;6.88;0.95;;;19.40;72.40;;;;;;5075086;28;20131;-71
2021/09/29 15:53:16;;;;;;;8.93;1.45;;;19.40;72.50;;;;;;5075581;28;20127;-71
2021/09/29 15:55:47;;;;;;;6.18;0.82;;;19.40;72.60;;;;;;5057473;28;20396;-70
2021/09/29 16:01:00;;;;;;;3.92;0.55;;;19.40;72.50;;;;;;5075469;28;20467;-71
2021/09/29 16:16:34;;;;;;;4.50;0.77;;;19.10;72.60;;;;;;5075129;28;20120;-70
2021/09/29 16:32:20;;;;;;;3.33;0.65;;;19.30;71.80;;;;;;5074902;28;20479;-70
2021/09/29 16:34:59;;;;;;;3.88;0.60;;;19.30;71.60;;;;;;5074880;28;20070;-70
2021/09/29 16:37:25;;;;;;;3.55;0.90;;;19.40;71.40;;;;;;5075197;28;20482;-70
2021/09/29 16:39:50;;;;;;;7.75;0.75;;;19.40;71.40;;;;;;5074697;28;20052;-71
2021/09/29 16:42:18;;;;;;;3.35;0.30;;;19.40;71.20;;;;;;5075181;28;20053;-71
2021/09/29 16:44:44;;;;;;;3.63;0.52;;;19.50;71.10;;;;;;5074937;28;20060;-71
2021/09/29 16:47:09;;;;;;;5.30;0.55;;;19.50;70.90;;;;;;5075047;28;20127;-71
2021/09/29 16:49:37;;;;;;;5.43;0.88;;;19.50;70.90;;;;;;5075039;28;20098;-71
2021/09/29 16:55:05;;;;;;;7.60;1.10;;;19.60;70.70;;;;;;5029922;28;20121;-71
2021/09/29 16:57:38;;;;;;;5.45;0.77;;;19.20;68.00;;;;;;5074937;28;20041;-71
2021/09/29 17:00:08;;;;;;;5.80;0.70;;;19.10;71.40;;;;;;5075233;28;20378;-71
2021/09/29 17:02:34;;;;;;;4.20;0.88;;;19.20;71.80;;;;;;5074684;28;20123;-71
2021/09/29 17:05:00;;;;;;;4.57;0.60;;;19.30;71.60;;;;;;5075372;28;20123;-71
2021/09/29 17:07:26;;;;;;;33.10;1.83;;;19.40;71.40;;;;;;5078566;28;20411;-70
